createdAt,value
2023-05-07T00:01:22.993Z,3.83
2023-05-07T00:03:49.503Z,4.38
2023-05-07T00:06:16.107Z,4.43
2023-05-07T00:08:42.509Z,4.93
2023-05-07T00:11:08.915Z,3.63
2023-05-07T00:13:36.448Z,4.90
2023-05-07T00:16:03.790Z,3.83
2023-05-07T00:18:30.962Z,4.03
2023-05-07T00:20:57.492Z,4.88
2023-05-07T00:23:24.262Z,4.95
2023-05-07T00:25:50.881Z,3.58
2023-05-07T00:28:17.336Z,4.38
2023-05-07T00:30:43.634Z,3.78
2023-05-07T00:33:10.337Z,4.38
2023-05-07T00:35:36.713Z,3.47
2023-05-07T00:38:03.052Z,3.38
2023-05-07T00:40:29.618Z,4.57
2023-05-07T00:42:57.640Z,6.38
2023-05-07T00:45:26.964Z,4.47
2023-05-07T00:47:59.094Z,3.70
2023-05-07T00:50:26.938Z,4.05
2023-05-07T00:52:54.176Z,4.15
2023-05-07T00:55:21.078Z,4.05
2023-05-07T00:57:47.662Z,3.88
2023-05-07T01:00:15.574Z,4.75
2023-05-07T01:02:43.251Z,4.03
2023-05-07T01:05:13.627Z,3.97
2023-05-07T01:07:41.986Z,3.90
2023-05-07T01:10:10.504Z,4.25
2023-05-07T01:12:39.346Z,5.65
2023-05-07T01:15:06.736Z,4.78
2023-05-07T01:17:35.928Z,3.95
2023-05-07T01:22:37.384Z,5.45
2023-05-07T01:25:05.436Z,4.10
2023-05-07T01:27:32.290Z,4.25
2023-05-07T01:29:58.623Z,4.50
2023-05-07T01:32:32.856Z,5.00
2023-05-07T01:35:00.873Z,5.53
2023-05-07T01:37:27.853Z,6.38
2023-05-07T01:39:54.991Z,5.03
2023-05-07T01:42:22.648Z,4.43
2023-05-07T01:44:49.103Z,4.00
2023-05-07T01:47:15.635Z,3.65
2023-05-07T01:49:43.090Z,3.50
2023-05-07T01:52:11.670Z,3.90
2023-05-07T01:54:38.252Z,4.15
2023-05-07T01:57:04.590Z,3.53
2023-05-07T01:59:31.158Z,3.40
2023-05-07T02:01:57.650Z,3.47
2023-05-07T02:04:24.257Z,4.57
2023-05-07T02:06:50.782Z,6.38
2023-05-07T02:09:18.654Z,3.35
2023-05-07T02:11:45.680Z,3.05
2023-05-07T02:14:12.050Z,4.05
2023-05-07T02:16:38.411Z,3.28
2023-05-07T02:19:04.901Z,3.50
2023-05-07T02:21:31.361Z,4.70
2023-05-07T02:23:57.988Z,4.95
2023-05-07T02:26:24.395Z,3.78
2023-05-07T02:28:51.131Z,3.63
2023-05-07T02:31:17.544Z,3.95
2023-05-07T02:33:44.018Z,4.00
2023-05-07T02:36:11.886Z,3.70
2023-05-07T02:38:38.574Z,4.00
2023-05-07T02:41:05.525Z,4.25
2023-05-07T02:43:31.961Z,3.45
2023-05-07T02:46:16.822Z,5.20
2023-05-07T02:48:43.986Z,5.22
2023-05-07T02:51:10.439Z,3.28
2023-05-07T02:53:37.008Z,3.30
2023-05-07T02:56:03.646Z,4.63
2023-05-07T02:58:30.202Z,3.95
2023-05-07T03:00:57.021Z,3.25
2023-05-07T03:03:23.822Z,3.85
2023-05-07T03:05:50.177Z,3.78
2023-05-07T03:08:16.588Z,4.95
2023-05-07T03:10:43.039Z,3.35
2023-05-07T03:13:09.439Z,4.03
2023-05-07T03:15:36.046Z,4.32
2023-05-07T03:18:02.640Z,4.13
2023-05-07T03:20:29.229Z,4.45
2023-05-07T03:22:55.756Z,4.50
2023-05-07T03:25:22.080Z,4.30
2023-05-07T03:27:48.436Z,3.72
2023-05-07T03:30:14.966Z,4.55
2023-05-07T03:32:41.638Z,7.80
2023-05-07T03:35:08.612Z,3.83
2023-05-07T03:37:35.147Z,4.28
2023-05-07T03:40:01.588Z,4.93
2023-05-07T03:42:27.951Z,4.40
2023-05-07T03:44:54.358Z,4.22
2023-05-07T03:47:20.769Z,3.92
2023-05-07T03:49:47.188Z,4.00
2023-05-07T03:52:13.638Z,3.40
2023-05-07T03:54:39.960Z,3.92
2023-05-07T03:57:06.480Z,3.22
2023-05-07T03:59:32.866Z,4.80
2023-05-07T04:01:59.424Z,3.97
2023-05-07T04:04:25.900Z,3.67
2023-05-07T04:06:52.708Z,4.93
2023-05-07T04:09:19.059Z,3.30
2023-05-07T04:11:45.443Z,4.82
2023-05-07T04:14:11.857Z,4.38
2023-05-07T04:16:38.288Z,4.05
2023-05-07T04:19:04.686Z,3.70
2023-05-07T04:21:31.234Z,3.63
2023-05-07T04:23:57.847Z,3.20
2023-05-07T04:26:25.233Z,4.22
2023-05-07T04:28:51.648Z,5.05
2023-05-07T04:31:18.390Z,4.28
2023-05-07T04:33:44.935Z,3.35
2023-05-07T04:36:11.784Z,3.80
2023-05-07T04:38:38.492Z,3.63
2023-05-07T04:41:06.266Z,4.47
2023-05-07T04:43:32.964Z,3.58
2023-05-07T04:45:59.729Z,3.47
2023-05-07T04:48:27.403Z,3.75
2023-05-07T04:50:53.766Z,4.75
2023-05-07T04:53:20.991Z,3.72
2023-05-07T04:55:47.389Z,3.70
2023-05-07T04:58:14.056Z,5.55
2023-05-07T05:00:40.794Z,4.38
2023-05-07T05:03:10.263Z,4.47
2023-05-07T05:05:36.763Z,4.88
2023-05-07T05:08:03.151Z,4.00
2023-05-07T05:10:29.525Z,3.88
2023-05-07T05:12:56.079Z,3.58
2023-05-07T05:15:22.950Z,3.67
2023-05-07T05:17:49.450Z,5.32
2023-05-07T05:20:16.012Z,4.43
2023-05-07T05:22:43.281Z,3.88
2023-05-07T05:25:09.817Z,3.85
2023-05-07T05:27:36.663Z,4.50
2023-05-07T05:30:04.656Z,6.05
2023-05-07T05:32:31.172Z,4.90
2023-05-07T05:34:57.758Z,4.90
2023-05-07T05:37:24.275Z,4.55
2023-05-07T05:39:50.624Z,4.10
2023-05-07T05:42:17.057Z,4.75
2023-05-07T05:44:43.458Z,4.25
2023-05-07T05:47:09.983Z,4.10
2023-05-07T05:49:36.404Z,7.20
2023-05-07T05:52:02.848Z,4.35
2023-05-07T05:54:29.372Z,5.05
2023-05-07T05:56:55.801Z,5.05
2023-05-07T05:59:22.373Z,3.63
2023-05-07T06:01:48.946Z,4.57
2023-05-07T06:04:15.412Z,4.45
2023-05-07T06:06:41.884Z,5.43
2023-05-07T06:09:08.247Z,3.58
2023-05-07T06:11:34.640Z,3.97
2023-05-07T06:14:01.051Z,4.13
2023-05-07T06:16:27.701Z,4.53
2023-05-07T06:18:54.123Z,4.00
2023-05-07T06:21:20.501Z,3.78
2023-05-07T06:23:46.825Z,3.35
2023-05-07T06:26:13.140Z,4.32
2023-05-07T06:28:39.502Z,3.05
2023-05-07T06:31:16.878Z,5.35
2023-05-07T06:33:45.127Z,3.30
2023-05-07T06:36:11.480Z,2.92
2023-05-07T06:38:37.918Z,3.28
2023-05-07T06:41:04.329Z,3.05
2023-05-07T06:43:30.847Z,5.68
2023-05-07T06:45:57.354Z,2.97
2023-05-07T06:48:23.801Z,3.33
2023-05-07T06:50:50.365Z,3.50
2023-05-07T06:53:16.917Z,2.50
2023-05-07T06:55:43.308Z,2.78
2023-05-07T06:58:09.691Z,2.53
2023-05-07T07:00:36.124Z,3.20
2023-05-07T07:03:02.563Z,2.42
2023-05-07T07:05:28.949Z,2.88
2023-05-07T07:07:55.389Z,3.55
2023-05-07T07:10:22.176Z,2.47
2023-05-07T07:12:49.605Z,2.10
2023-05-07T07:15:18.712Z,2.55
2023-05-07T07:17:45.271Z,2.28
2023-05-07T07:20:12.351Z,3.10
2023-05-07T07:22:38.883Z,2.70
2023-05-07T07:25:05.634Z,2.30
2023-05-07T07:27:31.995Z,3.78
2023-05-07T07:29:59.607Z,2.42
2023-05-07T07:32:26.667Z,2.38
2023-05-07T07:34:53.193Z,4.07
2023-05-07T07:37:19.574Z,2.38
2023-05-07T07:39:46.183Z,2.67
2023-05-07T07:42:12.592Z,2.30
2023-05-07T07:44:40.490Z,3.20
2023-05-07T07:47:07.054Z,2.65
2023-05-07T07:49:33.689Z,2.10
2023-05-07T07:52:00.445Z,2.22
2023-05-07T07:54:26.768Z,3.60
2023-05-07T07:56:53.223Z,2.80
2023-05-07T07:59:20.056Z,2.30
2023-05-07T08:01:46.614Z,3.55
2023-05-07T08:04:13.203Z,1.90
2023-05-07T08:06:40.018Z,2.88
2023-05-07T08:09:06.455Z,3.38
2023-05-07T08:11:32.856Z,3.72
2023-05-07T08:13:59.319Z,2.83
2023-05-07T08:16:26.190Z,2.60
2023-05-07T08:18:52.510Z,3.38
2023-05-07T08:21:18.917Z,3.28
2023-05-07T08:23:45.609Z,2.33
2023-05-07T08:26:12.162Z,4.35
2023-05-07T08:28:38.511Z,2.58
2023-05-07T08:31:04.989Z,3.50
2023-05-07T08:33:31.921Z,2.28
2023-05-07T08:35:58.320Z,5.25
2023-05-07T08:38:24.636Z,2.58
2023-05-07T08:40:51.355Z,2.42
2023-05-07T08:43:19.025Z,2.53
2023-05-07T08:45:46.790Z,2.45
2023-05-07T08:48:17.859Z,4.10
2023-05-07T08:50:44.418Z,2.58
2023-05-07T08:53:10.867Z,2.60
2023-05-07T08:55:37.342Z,3.85
2023-05-07T08:58:04.636Z,2.83
2023-05-07T09:00:31.222Z,4.13
2023-05-07T09:02:58.238Z,3.90
2023-05-07T09:05:24.745Z,2.70
2023-05-07T09:07:53.993Z,2.33
2023-05-07T09:10:22.224Z,3.28
2023-05-07T09:12:49.082Z,2.45
2023-05-07T09:15:15.652Z,2.72
2023-05-07T09:17:43.278Z,2.63
2023-05-07T09:20:11.100Z,2.55
2023-05-07T09:22:38.679Z,3.05
2023-05-07T09:25:10.358Z,2.88
2023-05-07T09:27:37.289Z,2.00
2023-05-07T09:30:10.370Z,2.40
2023-05-07T09:32:38.994Z,3.03
2023-05-07T09:35:06.102Z,2.83
2023-05-07T09:37:33.145Z,2.70
2023-05-07T09:39:59.562Z,2.03
2023-05-07T09:42:29.231Z,2.03
2023-05-07T09:44:56.048Z,2.13
2023-05-07T09:47:25.848Z,2.42
2023-05-07T09:49:57.840Z,3.20
2023-05-07T09:52:24.711Z,1.90
2023-05-07T09:54:52.216Z,2.58
2023-05-07T09:57:20.377Z,1.85
2023-05-07T09:59:47.888Z,2.17
2023-05-07T10:02:15.602Z,1.90
2023-05-07T10:04:42.698Z,2.90
2023-05-07T10:07:09.999Z,2.08
2023-05-07T10:09:39.459Z,1.98
2023-05-07T10:12:07.167Z,1.67
2023-05-07T10:14:34.623Z,2.05
2023-05-07T10:17:02.589Z,2.53
2023-05-07T10:19:30.323Z,1.63
2023-05-07T10:22:02.779Z,1.75
2023-05-07T10:24:37.826Z,2.05
2023-05-07T10:27:15.352Z,2.05
2023-05-07T10:30:10.059Z,2.22
2023-05-07T10:32:52.145Z,2.13
2023-05-07T10:35:22.486Z,1.98
2023-05-07T10:37:49.628Z,2.30
2023-05-07T10:40:16.164Z,3.50
2023-05-07T10:43:00.404Z,2.25
2023-05-07T10:45:28.157Z,3.08
2023-05-07T10:48:29.050Z,2.55
2023-05-07T10:51:20.940Z,1.60
2023-05-07T10:53:47.315Z,3.40
2023-05-07T10:56:19.913Z,1.98
2023-05-07T10:58:46.442Z,2.83
2023-05-07T11:01:14.157Z,2.05
2023-05-07T11:04:14.386Z,3.13
2023-05-07T11:06:41.741Z,2.13
2023-05-07T11:09:08.677Z,1.75
2023-05-07T11:11:52.382Z,1.90
2023-05-07T11:14:44.019Z,2.63
2023-05-07T11:17:11.172Z,2.55
2023-05-07T11:19:54.971Z,2.13
2023-05-07T11:22:34.110Z,1.90
2023-05-07T11:25:01.200Z,1.90
2023-05-07T11:27:28.113Z,1.90
2023-05-07T11:29:54.526Z,5.55
2023-05-07T11:32:30.635Z,2.38
2023-05-07T11:34:59.366Z,2.25
2023-05-07T11:37:28.314Z,2.30
2023-05-07T11:40:06.345Z,2.65
2023-05-07T11:42:43.865Z,3.25
2023-05-07T11:45:11.145Z,1.73
2023-05-07T11:47:38.102Z,2.05
2023-05-07T11:50:09.130Z,1.88
2023-05-07T11:52:36.366Z,1.98
2023-05-07T11:55:06.971Z,2.15
2023-05-07T11:57:35.211Z,2.08
2023-05-07T12:00:06.264Z,2.65
2023-05-07T12:02:33.131Z,2.00
2023-05-07T12:05:01.690Z,2.33
2023-05-07T12:07:28.220Z,3.13
2023-05-07T12:09:54.821Z,1.80
2023-05-07T12:12:21.176Z,1.85
2023-05-07T12:14:47.601Z,4.47
2023-05-07T12:17:15.306Z,2.40
2023-05-07T12:19:45.750Z,2.88
2023-05-07T12:22:13.472Z,1.58
2023-05-07T12:24:48.190Z,3.35
2023-05-07T12:29:48.291Z,3.08
2023-05-07T12:32:19.051Z,1.60
2023-05-07T12:34:46.392Z,3.50
2023-05-07T12:37:16.312Z,1.58
2023-05-07T12:39:49.382Z,1.58
2023-05-07T12:42:17.791Z,1.67
2023-05-07T12:44:47.201Z,2.28
2023-05-07T12:47:13.928Z,1.50
2023-05-07T12:49:41.863Z,1.83
2023-05-07T12:52:08.253Z,1.63
2023-05-07T12:54:39.476Z,1.83
2023-05-07T12:57:08.179Z,1.63
2023-05-07T12:59:37.433Z,3.10
2023-05-07T13:02:04.149Z,1.40
2023-05-07T13:04:30.568Z,1.45
2023-05-07T13:06:57.005Z,2.03
2023-05-07T13:09:23.373Z,1.70
2023-05-07T13:11:49.756Z,2.03
2023-05-07T13:14:16.632Z,2.58
2023-05-07T13:16:43.150Z,1.60
2023-05-07T13:19:09.571Z,5.20
2023-05-07T13:21:35.976Z,1.50
2023-05-07T13:24:02.264Z,2.13
2023-05-07T13:26:28.640Z,1.70
2023-05-07T13:28:55.651Z,2.13
2023-05-07T13:31:22.164Z,1.52
2023-05-07T13:33:48.553Z,2.05
2023-05-07T13:36:15.994Z,1.60
2023-05-07T13:38:42.462Z,1.95
2023-05-07T13:41:09.033Z,1.83
2023-05-07T13:43:35.448Z,1.90
2023-05-07T13:46:02.223Z,1.60
2023-05-07T13:48:29.456Z,2.25
2023-05-07T13:50:56.021Z,2.33
2023-05-07T13:53:22.463Z,2.25
2023-05-07T13:55:48.901Z,2.55
2023-05-07T13:58:15.349Z,1.58
2023-05-07T14:00:41.939Z,1.85
2023-05-07T14:03:08.405Z,2.53
2023-05-07T14:05:35.939Z,1.70
2023-05-07T14:08:02.376Z,2.35
2023-05-07T14:10:28.782Z,1.85
2023-05-07T14:12:55.332Z,2.88
2023-05-07T14:15:21.921Z,7.50
2023-05-07T14:17:48.383Z,5.45
2023-05-07T14:20:15.283Z,8.25
2023-05-07T14:22:41.767Z,18.88
2023-05-07T14:25:10.462Z,15.68
2023-05-07T14:27:36.996Z,37.10
2023-05-07T14:30:03.716Z,47.90
2023-05-07T14:32:30.265Z,58.35
2023-05-07T14:34:56.684Z,16.55
2023-05-07T14:37:25.018Z,18.20
2023-05-07T14:39:51.544Z,12.23
2023-05-07T14:42:18.466Z,9.98
2023-05-07T14:44:46.480Z,3.50
2023-05-07T14:47:13.816Z,11.98
2023-05-07T14:49:43.110Z,10.25
2023-05-07T14:52:10.990Z,8.48
2023-05-07T14:54:39.289Z,8.35
2023-05-07T14:57:06.921Z,10.07
2023-05-07T14:59:33.515Z,8.15
2023-05-07T15:02:00.065Z,7.22
2023-05-07T15:04:26.685Z,9.35
2023-05-07T15:06:54.736Z,10.25
2023-05-07T15:09:21.101Z,9.50
2023-05-07T15:11:47.446Z,11.70
2023-05-07T15:14:13.888Z,10.65
2023-05-07T15:16:40.458Z,9.88
2023-05-07T15:19:07.057Z,11.90
2023-05-07T15:21:35.468Z,11.88
2023-05-07T15:24:02.520Z,11.95
2023-05-07T15:26:28.914Z,13.45
2023-05-07T15:28:58.227Z,12.85
2023-05-07T15:31:26.182Z,14.05
2023-05-07T15:33:52.977Z,15.52
2023-05-07T15:36:20.971Z,13.93
2023-05-07T15:38:47.499Z,17.92
2023-05-07T15:41:13.845Z,14.55
2023-05-07T15:43:46.737Z,15.75
2023-05-07T15:46:13.173Z,14.95
2023-05-07T15:48:39.862Z,13.75
2023-05-07T15:51:08.713Z,14.80
2023-05-07T15:53:35.742Z,13.13
2023-05-07T15:56:02.180Z,9.65
2023-05-07T15:58:28.512Z,13.77
2023-05-07T16:00:56.127Z,9.82
2023-05-07T16:03:23.234Z,12.10
2023-05-07T16:05:49.777Z,9.50
2023-05-07T16:08:16.189Z,8.48
2023-05-07T16:10:42.704Z,7.65
2023-05-07T16:13:09.078Z,7.30
2023-05-07T16:15:35.950Z,10.88
2023-05-07T16:18:02.372Z,8.93
2023-05-07T16:20:30.365Z,11.68
2023-05-07T16:22:57.131Z,10.15
2023-05-07T16:25:23.722Z,8.75
2023-05-07T16:27:50.438Z,7.85
2023-05-07T16:30:16.892Z,11.57
2023-05-07T16:32:43.214Z,10.77
2023-05-07T16:35:09.954Z,7.45
2023-05-07T16:37:36.535Z,11.10
2023-05-07T16:40:07.202Z,10.73
2023-05-07T16:42:34.567Z,9.13
2023-05-07T16:45:01.084Z,8.10
2023-05-07T16:47:27.559Z,6.05
2023-05-07T16:49:54.582Z,9.50
2023-05-07T16:52:21.178Z,7.68
2023-05-07T16:54:47.536Z,7.90
2023-05-07T16:57:13.875Z,8.88
2023-05-07T16:59:40.331Z,7.90
2023-05-07T17:02:06.877Z,6.55
2023-05-07T17:04:33.325Z,8.20
2023-05-07T17:06:59.708Z,8.60
2023-05-07T17:09:28.249Z,7.90
2023-05-07T17:11:54.715Z,6.85
2023-05-07T17:14:21.116Z,10.48
2023-05-07T17:16:47.587Z,6.88
2023-05-07T17:19:14.038Z,6.28
2023-05-07T17:21:40.431Z,8.38
2023-05-07T17:24:07.151Z,7.10
2023-05-07T17:26:36.300Z,17.20
2023-05-07T17:29:03.710Z,6.25
2023-05-07T17:31:33.165Z,8.93
2023-05-07T17:33:59.496Z,19.65
2023-05-07T17:36:25.950Z,10.55
2023-05-07T17:38:52.403Z,8.57
2023-05-07T17:41:18.901Z,9.60
2023-05-07T17:43:45.301Z,7.88
2023-05-07T17:46:11.732Z,8.82
2023-05-07T17:48:38.149Z,12.05
2023-05-07T17:51:04.524Z,9.23
2023-05-07T17:53:30.904Z,9.68
2023-05-07T17:55:57.271Z,10.52
2023-05-07T17:58:26.431Z,10.43
2023-05-07T18:00:55.986Z,9.55
2023-05-07T18:03:24.434Z,11.50
2023-05-07T18:05:53.947Z,8.85
2023-05-07T18:08:20.681Z,9.18
2023-05-07T18:10:47.226Z,8.48
2023-05-07T18:13:13.749Z,8.93
2023-05-07T18:15:40.242Z,12.48
2023-05-07T18:18:06.968Z,9.10
2023-05-07T18:20:33.398Z,7.32
2023-05-07T18:23:00.172Z,9.07
2023-05-07T18:25:26.541Z,7.05
2023-05-07T18:27:52.818Z,7.68
2023-05-07T18:30:22.423Z,7.57
2023-05-07T18:32:49.318Z,6.45
2023-05-07T18:35:16.812Z,11.93
2023-05-07T18:37:43.335Z,11.15
2023-05-07T18:40:10.235Z,10.10
2023-05-07T18:42:39.143Z,7.72
2023-05-07T18:45:08.738Z,9.63
2023-05-07T18:47:35.117Z,8.23
2023-05-07T18:50:01.624Z,8.85
2023-05-07T18:52:29.173Z,9.48
2023-05-07T18:54:55.759Z,8.00
2023-05-07T18:57:22.351Z,9.52
2023-05-07T18:59:48.752Z,12.00
2023-05-07T19:02:16.553Z,9.18
2023-05-07T19:04:42.989Z,10.52
2023-05-07T19:07:09.540Z,10.88
2023-05-07T19:09:36.229Z,12.35
2023-05-07T19:12:02.588Z,12.48
2023-05-07T19:14:29.048Z,11.50
2023-05-07T19:16:56.490Z,9.35
2023-05-07T19:19:22.997Z,11.38
2023-05-07T19:21:49.381Z,11.93
2023-05-07T19:24:16.546Z,8.85
2023-05-07T19:26:43.075Z,7.82
2023-05-07T19:29:17.421Z,7.82
2023-05-07T19:31:44.956Z,6.85
2023-05-07T19:34:13.783Z,16.02
2023-05-07T19:36:40.768Z,9.60
2023-05-07T19:39:07.198Z,8.50
2023-05-07T19:41:33.626Z,9.18
2023-05-07T19:44:00.121Z,7.10
2023-05-07T19:46:30.030Z,8.98
2023-05-07T19:48:56.893Z,9.38
2023-05-07T19:51:23.561Z,9.10
2023-05-07T19:53:50.715Z,13.88
2023-05-07T19:56:17.332Z,14.43
2023-05-07T19:58:43.873Z,11.23
2023-05-07T20:01:10.480Z,13.27
2023-05-07T20:03:37.270Z,9.02
2023-05-07T20:06:03.804Z,12.10
2023-05-07T20:08:30.704Z,12.27
2023-05-07T20:10:59.520Z,13.90
2023-05-07T20:13:27.291Z,13.45
2023-05-07T20:15:58.487Z,14.52
2023-05-07T20:18:25.763Z,13.20
2023-05-07T20:20:54.988Z,14.05
2023-05-07T20:23:21.399Z,14.13
2023-05-07T20:25:48.246Z,13.38
2023-05-07T20:28:14.681Z,15.25
2023-05-07T20:30:41.185Z,10.45
2023-05-07T20:33:07.926Z,10.55
2023-05-07T20:35:34.715Z,12.45
2023-05-07T20:38:02.279Z,13.82
2023-05-07T20:40:29.583Z,16.27
2023-05-07T20:43:00.690Z,17.08
2023-05-07T20:45:27.544Z,14.35
2023-05-07T20:47:54.432Z,15.35
2023-05-07T20:50:23.904Z,12.13
2023-05-07T20:52:53.067Z,14.20
2023-05-07T20:57:45.869Z,12.07
2023-05-07T21:00:12.668Z,12.45
2023-05-07T21:02:39.270Z,16.80
2023-05-07T21:05:06.153Z,15.57
2023-05-07T21:07:33.039Z,18.58
2023-05-07T21:10:00.626Z,17.10
2023-05-07T21:12:26.971Z,13.98
2023-05-07T21:14:53.582Z,17.85
2023-05-07T21:17:19.938Z,17.83
2023-05-07T21:19:47.992Z,18.55
2023-05-07T21:22:14.347Z,16.92
2023-05-07T21:24:41.269Z,17.27
2023-05-07T21:27:07.844Z,19.15
2023-05-07T21:29:36.841Z,20.65
2023-05-07T21:32:03.878Z,19.95
2023-05-07T21:34:36.514Z,20.25
2023-05-07T21:37:04.307Z,19.95
2023-05-07T21:39:30.769Z,22.88
2023-05-07T21:41:57.739Z,22.40
2023-05-07T21:44:24.381Z,21.95
2023-05-07T21:46:51.190Z,16.05
2023-05-07T21:49:17.794Z,24.75
2023-05-07T21:51:47.786Z,21.00
2023-05-07T21:54:14.648Z,24.50
2023-05-07T21:56:44.355Z,17.63
2023-05-07T21:59:10.892Z,17.67
2023-05-07T22:01:37.270Z,19.00
2023-05-07T22:04:04.166Z,25.83
2023-05-07T22:06:33.790Z,17.52
2023-05-07T22:09:00.252Z,18.17
2023-05-07T22:11:26.671Z,14.93
2023-05-07T22:13:53.233Z,14.82
2023-05-07T22:16:21.385Z,13.38
2023-05-07T22:18:49.672Z,15.38
2023-05-07T22:21:16.396Z,14.02
2023-05-07T22:23:42.762Z,12.98
2023-05-07T22:26:13.157Z,13.60
2023-05-07T22:28:40.621Z,11.60
2023-05-07T22:31:07.096Z,9.93
2023-05-07T22:33:33.602Z,12.10
2023-05-07T22:35:59.981Z,13.75
2023-05-07T22:38:29.135Z,10.23
2023-05-07T22:40:55.709Z,11.88
2023-05-07T22:43:22.046Z,9.88
2023-05-07T22:45:48.533Z,9.65
2023-05-07T22:48:14.924Z,11.43
2023-05-07T22:50:45.087Z,9.80
2023-05-07T22:53:11.796Z,10.05
2023-05-07T22:55:38.158Z,9.10
2023-05-07T22:58:04.618Z,10.07
2023-05-07T23:00:36.134Z,9.18
2023-05-07T23:03:02.923Z,9.25
2023-05-07T23:05:29.416Z,9.75
2023-05-07T23:07:56.028Z,8.90
2023-05-07T23:10:22.476Z,14.30
2023-05-07T23:12:49.406Z,9.45
2023-05-07T23:15:19.543Z,9.98
2023-05-07T23:17:46.716Z,15.27
2023-05-07T23:20:14.573Z,13.95
2023-05-07T23:22:42.059Z,9.27
2023-05-07T23:25:12.004Z,10.50
2023-05-07T23:27:42.138Z,9.88
2023-05-07T23:30:09.322Z,7.93
2023-05-07T23:32:36.382Z,8.30
2023-05-07T23:35:03.317Z,9.57
2023-05-07T23:37:29.805Z,10.07
2023-05-07T23:39:56.171Z,9.95
2023-05-07T23:42:25.193Z,9.18
2023-05-07T23:44:51.852Z,8.82
2023-05-07T23:47:18.911Z,9.68
2023-05-07T23:49:45.440Z,7.93
2023-05-07T23:52:12.234Z,8.32
2023-05-07T23:54:38.722Z,7.30
2023-05-07T23:57:05.071Z,7.07
2023-05-07T23:59:31.583Z,6.95
